sensor_id;sensor_type;location;lat;lon;timestamp;temperature;humidity
51637;DHT22;37713;53.254;6.460;2024-02-21T00:01:07;9.10;99.90
51637;DHT22;37713;53.254;6.460;2024-02-21T00:03:33;9.10;99.90
51637;DHT22;37713;53.254;6.460;2024-02-21T00:05:59;9.10;99.90
51637;DHT22;37713;53.254;6.460;2024-02-21T00:08:25;9.10;99.90
51637;DHT22;37713;53.254;6.460;2024-02-21T00:10:51;9.00;99.90
51637;DHT22;37713;53.254;6.460;2024-02-21T00:13:17;9.00;99.90
51637;DHT22;37713;53.254;6.460;2024-02-21T00:15:42;9.00;99.90
51637;DHT22;37713;53.254;6.460;2024-02-21T00:18:08;9.00;99.90
51637;DHT22;37713;53.254;6.460;2024-02-21T00:20:36;8.90;99.90
51637;DHT22;37713;53.254;6.460;2024-02-21T00:23:02;8.90;99.90
51637;DHT22;37713;53.254;6.460;2024-02-21T00:25:28;8.90;99.90
51637;DHT22;37713;53.254;6.460;2024-02-21T00:27:54;8.90;99.90
51637;DHT22;37713;53.254;6.460;2024-02-21T00:30:21;8.90;99.90
51637;DHT22;37713;53.254;6.460;2024-02-21T00:32:46;8.80;99.90
51637;DHT22;37713;53.254;6.460;2024-02-21T00:35:13;8.80;99.90
51637;DHT22;37713;53.254;6.460;2024-02-21T00:37:38;8.80;99.90
51637;DHT22;37713;53.254;6.460;2024-02-21T00:40:05;8.80;99.90
51637;DHT22;37713;53.254;6.460;2024-02-21T00:42:31;8.80;99.90
51637;DHT22;37713;53.254;6.460;2024-02-21T00:44:57;8.80;99.90
51637;DHT22;37713;53.254;6.460;2024-02-21T00:47:22;8.80;99.90
51637;DHT22;37713;53.254;6.460;2024-02-21T00:49:48;8.80;99.90
51637;DHT22;37713;53.254;6.460;2024-02-21T00:52:14;8.80;99.90
51637;DHT22;37713;53.254;6.460;2024-02-21T00:54:40;8.80;99.90
51637;DHT22;37713;53.254;6.460;2024-02-21T00:57:05;8.80;99.90
51637;DHT22;37713;53.254;6.460;2024-02-21T00:59:32;8.70;99.90
51637;DHT22;37713;53.254;6.460;2024-02-21T01:01:58;8.80;99.90
51637;DHT22;37713;53.254;6.460;2024-02-21T01:04:25;8.80;99.90
51637;DHT22;37713;53.254;6.460;2024-02-21T01:06:50;8.80;99.90
51637;DHT22;37713;53.254;6.460;2024-02-21T01:09:16;8.80;99.90
51637;DHT22;37713;53.254;6.460;2024-02-21T01:11:42;8.80;99.90
51637;DHT22;37713;53.254;6.460;2024-02-21T01:14:08;8.80;99.90
51637;DHT22;37713;53.254;6.460;2024-02-21T01:16:33;8.80;99.90
51637;DHT22;37713;53.254;6.460;2024-02-21T01:18:59;8.80;99.90
51637;DHT22;37713;53.254;6.460;2024-02-21T01:21:25;8.80;99.90
51637;DHT22;37713;53.254;6.460;2024-02-21T01:23:51;8.80;99.90
51637;DHT22;37713;53.254;6.460;2024-02-21T01:26:17;8.80;99.90
51637;DHT22;37713;53.254;6.460;2024-02-21T01:28:43;8.80;99.90
51637;DHT22;37713;53.254;6.460;2024-02-21T01:31:10;8.70;99.90
51637;DHT22;37713;53.254;6.460;2024-02-21T01:33:36;8.80;99.90
51637;DHT22;37713;53.254;6.460;2024-02-21T01:36:02;8.70;99.90
51637;DHT22;37713;53.254;6.460;2024-02-21T01:38:28;8.70;99.90
51637;DHT22;37713;53.254;6.460;2024-02-21T01:40:54;8.70;99.90
51637;DHT22;37713;53.254;6.460;2024-02-21T01:43:21;8.60;99.90
51637;DHT22;37713;53.254;6.460;2024-02-21T01:45:52;8.70;99.90
51637;DHT22;37713;53.254;6.460;2024-02-21T01:48:19;8.60;99.90
51637;DHT22;37713;53.254;6.460;2024-02-21T01:50:54;8.70;99.90
51637;DHT22;37713;53.254;6.460;2024-02-21T01:53:29;8.60;99.90
51637;DHT22;37713;53.254;6.460;2024-02-21T01:55:55;8.60;99.90
51637;DHT22;37713;53.254;6.460;2024-02-21T01:58:22;8.60;99.90
51637;DHT22;37713;53.254;6.460;2024-02-21T02:00:50;8.60;99.90
51637;DHT22;37713;53.254;6.460;2024-02-21T02:03:16;8.60;99.90
51637;DHT22;37713;53.254;6.460;2024-02-21T02:05:46;8.70;99.90
51637;DHT22;37713;53.254;6.460;2024-02-21T02:08:16;8.70;99.90
51637;DHT22;37713;53.254;6.460;2024-02-21T02:10:43;8.70;99.90
51637;DHT22;37713;53.254;6.460;2024-02-21T02:13:09;8.70;99.90
51637;DHT22;37713;53.254;6.460;2024-02-21T02:15:45;8.70;99.90
51637;DHT22;37713;53.254;6.460;2024-02-21T02:18:12;8.70;99.90
51637;DHT22;37713;53.254;6.460;2024-02-21T02:20:38;8.70;99.90
51637;DHT22;37713;53.254;6.460;2024-02-21T02:23:12;8.70;99.90
51637;DHT22;37713;53.254;6.460;2024-02-21T02:25:38;8.70;99.90
51637;DHT22;37713;53.254;6.460;2024-02-21T02:28:06;8.70;99.90
51637;DHT22;37713;53.254;6.460;2024-02-21T02:30:33;8.70;99.90
51637;DHT22;37713;53.254;6.460;2024-02-21T02:33:00;8.70;99.90
51637;DHT22;37713;53.254;6.460;2024-02-21T02:35:25;8.80;99.90
51637;DHT22;37713;53.254;6.460;2024-02-21T02:37:51;8.70;99.90
51637;DHT22;37713;53.254;6.460;2024-02-21T02:40:18;8.80;99.90
51637;DHT22;37713;53.254;6.460;2024-02-21T02:42:44;8.80;99.90
51637;DHT22;37713;53.254;6.460;2024-02-21T02:45:10;8.80;99.90
51637;DHT22;37713;53.254;6.460;2024-02-21T02:47:35;8.70;99.90
51637;DHT22;37713;53.254;6.460;2024-02-21T02:50:01;8.80;99.90
51637;DHT22;37713;53.254;6.460;2024-02-21T02:52:27;8.80;99.90
51637;DHT22;37713;53.254;6.460;2024-02-21T02:54:53;8.80;99.90
51637;DHT22;37713;53.254;6.460;2024-02-21T02:57:21;8.80;99.90
51637;DHT22;37713;53.254;6.460;2024-02-21T02:59:50;8.80;99.90
51637;DHT22;37713;53.254;6.460;2024-02-21T03:02:17;8.80;99.90
51637;DHT22;37713;53.254;6.460;2024-02-21T03:04:43;8.70;99.90
51637;DHT22;37713;53.254;6.460;2024-02-21T03:07:09;8.70;99.90
51637;DHT22;37713;53.254;6.460;2024-02-21T03:09:37;8.70;99.90
51637;DHT22;37713;53.254;6.460;2024-02-21T03:12:04;8.70;99.90
51637;DHT22;37713;53.254;6.460;2024-02-21T03:14:30;8.70;99.90
51637;DHT22;37713;53.254;6.460;2024-02-21T03:16:57;8.80;99.90
51637;DHT22;37713;53.254;6.460;2024-02-21T03:19:24;8.70;99.90
51637;DHT22;37713;53.254;6.460;2024-02-21T03:21:50;8.70;99.90
51637;DHT22;37713;53.254;6.460;2024-02-21T03:24:16;8.70;99.90
51637;DHT22;37713;53.254;6.460;2024-02-21T03:26:42;8.70;99.90
51637;DHT22;37713;53.254;6.460;2024-02-21T03:29:09;8.70;99.90
51637;DHT22;37713;53.254;6.460;2024-02-21T03:31:35;8.70;99.90
51637;DHT22;37713;53.254;6.460;2024-02-21T03:34:01;8.70;99.90
51637;DHT22;37713;53.254;6.460;2024-02-21T03:36:27;8.70;99.90
51637;DHT22;37713;53.254;6.460;2024-02-21T03:38:53;8.70;99.90
51637;DHT22;37713;53.254;6.460;2024-02-21T03:41:19;8.80;99.90
51637;DHT22;37713;53.254;6.460;2024-02-21T03:43:45;8.70;99.90
51637;DHT22;37713;53.254;6.460;2024-02-21T03:46:11;8.70;99.90
51637;DHT22;37713;53.254;6.460;2024-02-21T03:48:37;8.70;99.90
51637;DHT22;37713;53.254;6.460;2024-02-21T03:51:03;8.70;99.90
51637;DHT22;37713;53.254;6.460;2024-02-21T03:53:29;8.70;99.90
51637;DHT22;37713;53.254;6.460;2024-02-21T03:55:55;8.70;99.90
51637;DHT22;37713;53.254;6.460;2024-02-21T03:58:22;8.70;99.90
51637;DHT22;37713;53.254;6.460;2024-02-21T04:00:48;8.70;99.90
51637;DHT22;37713;53.254;6.460;2024-02-21T04:03:13;8.70;99.90
51637;DHT22;37713;53.254;6.460;2024-02-21T04:05:39;8.70;99.90
51637;DHT22;37713;53.254;6.460;2024-02-21T04:08:05;8.70;99.90
51637;DHT22;37713;53.254;6.460;2024-02-21T04:10:31;8.70;99.90
51637;DHT22;37713;53.254;6.460;2024-02-21T04:12:57;8.70;99.90
51637;DHT22;37713;53.254;6.460;2024-02-21T04:15:23;8.70;99.90
51637;DHT22;37713;53.254;6.460;2024-02-21T04:17:49;8.80;99.90
51637;DHT22;37713;53.254;6.460;2024-02-21T04:20:16;8.80;99.90
51637;DHT22;37713;53.254;6.460;2024-02-21T04:22:46;8.70;99.90
51637;DHT22;37713;53.254;6.460;2024-02-21T04:25:12;8.70;99.90
51637;DHT22;37713;53.254;6.460;2024-02-21T04:27:38;8.70;99.90
51637;DHT22;37713;53.254;6.460;2024-02-21T04:30:06;8.70;99.90
51637;DHT22;37713;53.254;6.460;2024-02-21T04:32:32;8.70;99.90
51637;DHT22;37713;53.254;6.460;2024-02-21T04:34:57;8.70;99.90
51637;DHT22;37713;53.254;6.460;2024-02-21T04:37:23;8.70;99.90
51637;DHT22;37713;53.254;6.460;2024-02-21T04:39:50;8.70;99.90
51637;DHT22;37713;53.254;6.460;2024-02-21T04:42:16;8.70;99.90
51637;DHT22;37713;53.254;6.460;2024-02-21T04:44:42;8.70;99.90
51637;DHT22;37713;53.254;6.460;2024-02-21T04:47:09;8.70;99.90
51637;DHT22;37713;53.254;6.460;2024-02-21T04:49:35;8.80;99.90
51637;DHT22;37713;53.254;6.460;2024-02-21T04:52:01;8.70;99.90
51637;DHT22;37713;53.254;6.460;2024-02-21T04:54:27;8.70;99.90
51637;DHT22;37713;53.254;6.460;2024-02-21T04:56:52;8.70;99.90
51637;DHT22;37713;53.254;6.460;2024-02-21T04:59:18;8.70;99.90
51637;DHT22;37713;53.254;6.460;2024-02-21T05:01:44;8.70;99.90
51637;DHT22;37713;53.254;6.460;2024-02-21T05:04:10;8.70;99.90
51637;DHT22;37713;53.254;6.460;2024-02-21T05:06:42;8.70;99.90
51637;DHT22;37713;53.254;6.460;2024-02-21T05:09:09;8.70;99.90
51637;DHT22;37713;53.254;6.460;2024-02-21T05:11:35;8.70;99.90
51637;DHT22;37713;53.254;6.460;2024-02-21T05:14:01;8.70;99.90
51637;DHT22;37713;53.254;6.460;2024-02-21T05:16:28;8.70;99.90
51637;DHT22;37713;53.254;6.460;2024-02-21T05:18:54;8.70;99.90
51637;DHT22;37713;53.254;6.460;2024-02-21T05:21:19;8.70;99.90
51637;DHT22;37713;53.254;6.460;2024-02-21T05:23:45;8.70;99.90
51637;DHT22;37713;53.254;6.460;2024-02-21T05:26:11;8.70;99.90
51637;DHT22;37713;53.254;6.460;2024-02-21T05:28:37;8.70;99.90
51637;DHT22;37713;53.254;6.460;2024-02-21T05:31:03;8.70;99.90
51637;DHT22;37713;53.254;6.460;2024-02-21T05:33:29;8.70;99.90
51637;DHT22;37713;53.254;6.460;2024-02-21T05:35:55;8.70;99.90
51637;DHT22;37713;53.254;6.460;2024-02-21T05:38:20;8.70;99.90
51637;DHT22;37713;53.254;6.460;2024-02-21T05:40:46;8.70;99.90
51637;DHT22;37713;53.254;6.460;2024-02-21T05:43:14;8.60;99.90
51637;DHT22;37713;53.254;6.460;2024-02-21T05:45:39;8.70;99.90
51637;DHT22;37713;53.254;6.460;2024-02-21T05:48:06;8.70;99.90
51637;DHT22;37713;53.254;6.460;2024-02-21T05:50:32;8.70;99.90
51637;DHT22;37713;53.254;6.460;2024-02-21T05:52:59;8.70;99.90
51637;DHT22;37713;53.254;6.460;2024-02-21T05:55:24;8.70;99.90
51637;DHT22;37713;53.254;6.460;2024-02-21T05:57:53;8.60;99.90
51637;DHT22;37713;53.254;6.460;2024-02-21T06:00:19;8.70;99.90
51637;DHT22;37713;53.254;6.460;2024-02-21T06:02:45;8.60;99.90
51637;DHT22;37713;53.254;6.460;2024-02-21T06:05:11;8.60;99.90
51637;DHT22;37713;53.254;6.460;2024-02-21T06:07:38;8.60;99.90
51637;DHT22;37713;53.254;6.460;2024-02-21T06:10:04;8.70;99.90
51637;DHT22;37713;53.254;6.460;2024-02-21T06:12:30;8.70;99.90
51637;DHT22;37713;53.254;6.460;2024-02-21T06:14:56;8.70;99.90
51637;DHT22;37713;53.254;6.460;2024-02-21T06:17:22;8.70;99.90
51637;DHT22;37713;53.254;6.460;2024-02-21T06:19:48;8.70;99.90
51637;DHT22;37713;53.254;6.460;2024-02-21T06:22:13;8.70;99.90
51637;DHT22;37713;53.254;6.460;2024-02-21T06:24:39;8.70;99.90
51637;DHT22;37713;53.254;6.460;2024-02-21T06:27:05;8.70;99.90
51637;DHT22;37713;53.254;6.460;2024-02-21T06:29:32;8.70;99.90
51637;DHT22;37713;53.254;6.460;2024-02-21T06:31:58;8.70;99.90
51637;DHT22;37713;53.254;6.460;2024-02-21T06:34:24;8.70;99.90
51637;DHT22;37713;53.254;6.460;2024-02-21T06:36:50;8.70;99.90
51637;DHT22;37713;53.254;6.460;2024-02-21T06:39:16;8.70;99.90
51637;DHT22;37713;53.254;6.460;2024-02-21T06:41:42;8.70;99.90
51637;DHT22;37713;53.254;6.460;2024-02-21T06:44:08;8.70;99.90
51637;DHT22;37713;53.254;6.460;2024-02-21T06:46:34;8.70;99.90
51637;DHT22;37713;53.254;6.460;2024-02-21T06:49:01;8.60;99.90
51637;DHT22;37713;53.254;6.460;2024-02-21T06:51:28;8.70;99.90
51637;DHT22;37713;53.254;6.460;2024-02-21T06:53:54;8.70;99.90
51637;DHT22;37713;53.254;6.460;2024-02-21T06:56:20;8.70;99.90
51637;DHT22;37713;53.254;6.460;2024-02-21T06:58:46;8.70;99.90
51637;DHT22;37713;53.254;6.460;2024-02-21T07:01:11;8.70;99.90
51637;DHT22;37713;53.254;6.460;2024-02-21T07:03:37;8.70;99.90
51637;DHT22;37713;53.254;6.460;2024-02-21T07:06:03;8.70;99.90
51637;DHT22;37713;53.254;6.460;2024-02-21T07:08:29;8.70;99.90
51637;DHT22;37713;53.254;6.460;2024-02-21T07:10:55;8.70;99.90
51637;DHT22;37713;53.254;6.460;2024-02-21T07:13:21;8.80;99.90
51637;DHT22;37713;53.254;6.460;2024-02-21T07:15:48;8.70;99.90
51637;DHT22;37713;53.254;6.460;2024-02-21T07:18:14;8.70;99.90
51637;DHT22;37713;53.254;6.460;2024-02-21T07:20:40;8.70;99.90
51637;DHT22;37713;53.254;6.460;2024-02-21T07:23:08;8.70;99.90
51637;DHT22;37713;53.254;6.460;2024-02-21T07:25:33;8.80;99.90
51637;DHT22;37713;53.254;6.460;2024-02-21T07:27:59;8.80;99.90
51637;DHT22;37713;53.254;6.460;2024-02-21T07:30:25;8.70;99.90
51637;DHT22;37713;53.254;6.460;2024-02-21T07:32:51;8.80;99.90
51637;DHT22;37713;53.254;6.460;2024-02-21T07:35:18;8.80;99.90
51637;DHT22;37713;53.254;6.460;2024-02-21T07:37:43;8.80;99.90
51637;DHT22;37713;53.254;6.460;2024-02-21T07:40:13;8.80;99.90
51637;DHT22;37713;53.254;6.460;2024-02-21T07:42:39;8.80;99.90
51637;DHT22;37713;53.254;6.460;2024-02-21T07:45:07;8.80;99.90
51637;DHT22;37713;53.254;6.460;2024-02-21T07:47:34;8.80;99.90
51637;DHT22;37713;53.254;6.460;2024-02-21T07:50:00;8.80;99.90
51637;DHT22;37713;53.254;6.460;2024-02-21T07:52:26;8.80;99.90
51637;DHT22;37713;53.254;6.460;2024-02-21T07:54:52;8.90;99.90
51637;DHT22;37713;53.254;6.460;2024-02-21T07:57:18;8.80;99.90
51637;DHT22;37713;53.254;6.460;2024-02-21T07:59:44;8.90;99.90
51637;DHT22;37713;53.254;6.460;2024-02-21T08:02:09;8.90;99.90
51637;DHT22;37713;53.254;6.460;2024-02-21T08:04:35;8.90;99.90
51637;DHT22;37713;53.254;6.460;2024-02-21T08:07:02;8.90;99.90
51637;DHT22;37713;53.254;6.460;2024-02-21T08:09:30;8.90;99.90
51637;DHT22;37713;53.254;6.460;2024-02-21T08:11:56;8.90;99.90
51637;DHT22;37713;53.254;6.460;2024-02-21T08:14:22;9.00;99.90
51637;DHT22;37713;53.254;6.460;2024-02-21T08:16:48;8.90;99.90
51637;DHT22;37713;53.254;6.460;2024-02-21T08:19:14;9.00;99.90
51637;DHT22;37713;53.254;6.460;2024-02-21T08:21:39;8.90;99.90
51637;DHT22;37713;53.254;6.460;2024-02-21T08:24:05;9.00;99.90
51637;DHT22;37713;53.254;6.460;2024-02-21T08:26:31;9.00;99.90
51637;DHT22;37713;53.254;6.460;2024-02-21T08:28:57;8.90;99.90
51637;DHT22;37713;53.254;6.460;2024-02-21T08:31:25;9.00;99.90
51637;DHT22;37713;53.254;6.460;2024-02-21T08:34:00;9.00;99.90
51637;DHT22;37713;53.254;6.460;2024-02-21T08:36:36;9.00;99.90
51637;DHT22;37713;53.254;6.460;2024-02-21T08:39:03;9.00;99.90
51637;DHT22;37713;53.254;6.460;2024-02-21T08:41:33;9.00;99.90
51637;DHT22;37713;53.254;6.460;2024-02-21T08:44:00;9.00;99.90
51637;DHT22;37713;53.254;6.460;2024-02-21T08:46:26;9.00;99.90
51637;DHT22;37713;53.254;6.460;2024-02-21T08:48:53;9.00;99.90
51637;DHT22;37713;53.254;6.460;2024-02-21T08:51:19;9.00;99.90
51637;DHT22;37713;53.254;6.460;2024-02-21T08:53:48;9.00;99.90
51637;DHT22;37713;53.254;6.460;2024-02-21T08:56:15;9.00;99.90
51637;DHT22;37713;53.254;6.460;2024-02-21T08:58:42;9.00;99.90
51637;DHT22;37713;53.254;6.460;2024-02-21T09:01:08;9.10;99.90
51637;DHT22;37713;53.254;6.460;2024-02-21T09:03:38;9.10;99.90
51637;DHT22;37713;53.254;6.460;2024-02-21T09:06:05;9.00;99.90
51637;DHT22;37713;53.254;6.460;2024-02-21T09:08:31;9.00;99.90
51637;DHT22;37713;53.254;6.460;2024-02-21T09:10:57;9.00;99.90
51637;DHT22;37713;53.254;6.460;2024-02-21T09:13:22;9.00;99.90
51637;DHT22;37713;53.254;6.460;2024-02-21T09:15:49;9.00;99.90
51637;DHT22;37713;53.254;6.460;2024-02-21T09:18:15;9.00;99.90
51637;DHT22;37713;53.254;6.460;2024-02-21T09:20:42;9.00;99.90
51637;DHT22;37713;53.254;6.460;2024-02-21T09:23:09;9.00;99.90
51637;DHT22;37713;53.254;6.460;2024-02-21T09:25:35;9.00;99.90
51637;DHT22;37713;53.254;6.460;2024-02-21T09:28:04;9.00;99.90
51637;DHT22;37713;53.254;6.460;2024-02-21T09:30:32;9.00;99.90
51637;DHT22;37713;53.254;6.460;2024-02-21T09:32:58;9.00;99.90
51637;DHT22;37713;53.254;6.460;2024-02-21T09:35:28;9.00;99.90
51637;DHT22;37713;53.254;6.460;2024-02-21T09:37:54;9.00;99.90
51637;DHT22;37713;53.254;6.460;2024-02-21T09:40:20;9.10;99.90
51637;DHT22;37713;53.254;6.460;2024-02-21T09:42:47;9.10;99.90
51637;DHT22;37713;53.254;6.460;2024-02-21T09:50:53;9.20;99.90
51637;DHT22;37713;53.254;6.460;2024-02-21T09:53:22;9.10;99.90
51637;DHT22;37713;53.254;6.460;2024-02-21T09:55:50;9.10;99.90
51637;DHT22;37713;53.254;6.460;2024-02-21T09:58:16;9.20;99.90
51637;DHT22;37713;53.254;6.460;2024-02-21T10:00:42;9.20;99.90
51637;DHT22;37713;53.254;6.460;2024-02-21T10:03:08;9.20;99.90
51637;DHT22;37713;53.254;6.460;2024-02-21T10:05:35;9.20;99.90
51637;DHT22;37713;53.254;6.460;2024-02-21T10:08:01;9.20;99.90
51637;DHT22;37713;53.254;6.460;2024-02-21T10:10:27;9.20;99.90
51637;DHT22;37713;53.254;6.460;2024-02-21T10:12:55;9.20;99.90
51637;DHT22;37713;53.254;6.460;2024-02-21T10:15:24;9.20;99.90
51637;DHT22;37713;53.254;6.460;2024-02-21T10:17:58;9.20;99.90
51637;DHT22;37713;53.254;6.460;2024-02-21T10:20:24;9.20;99.90
51637;DHT22;37713;53.254;6.460;2024-02-21T10:23:03;9.20;99.90
51637;DHT22;37713;53.254;6.460;2024-02-21T10:25:37;9.20;99.90
51637;DHT22;37713;53.254;6.460;2024-02-21T10:28:15;9.20;99.90
51637;DHT22;37713;53.254;6.460;2024-02-21T10:30:51;9.20;99.90
51637;DHT22;37713;53.254;6.460;2024-02-21T10:33:18;9.20;99.90
51637;DHT22;37713;53.254;6.460;2024-02-21T10:35:47;9.20;99.90
51637;DHT22;37713;53.254;6.460;2024-02-21T10:38:13;9.20;99.90
51637;DHT22;37713;53.254;6.460;2024-02-21T10:40:39;9.30;99.90
51637;DHT22;37713;53.254;6.460;2024-02-21T10:43:07;9.40;99.90
51637;DHT22;37713;53.254;6.460;2024-02-21T10:45:36;9.40;99.90
51637;DHT22;37713;53.254;6.460;2024-02-21T10:48:08;9.40;99.90
51637;DHT22;37713;53.254;6.460;2024-02-21T10:50:53;9.30;99.90
51637;DHT22;37713;53.254;6.460;2024-02-21T10:53:47;9.30;99.90
51637;DHT22;37713;53.254;6.460;2024-02-21T10:56:29;9.30;99.90
51637;DHT22;37713;53.254;6.460;2024-02-21T10:59:06;9.30;99.90
51637;DHT22;37713;53.254;6.460;2024-02-21T11:01:33;9.30;99.90
51637;DHT22;37713;53.254;6.460;2024-02-21T11:04:08;9.40;99.90
51637;DHT22;37713;53.254;6.460;2024-02-21T11:06:38;9.60;99.90
51637;DHT22;37713;53.254;6.460;2024-02-21T11:09:09;9.70;99.90
51637;DHT22;37713;53.254;6.460;2024-02-21T11:11:36;9.70;99.90
51637;DHT22;37713;53.254;6.460;2024-02-21T11:14:22;9.80;99.90
51637;DHT22;37713;53.254;6.460;2024-02-21T11:16:48;9.80;99.90
51637;DHT22;37713;53.254;6.460;2024-02-21T11:19:22;9.80;99.90
51637;DHT22;37713;53.254;6.460;2024-02-21T11:21:48;9.70;99.90
51637;DHT22;37713;53.254;6.460;2024-02-21T11:24:26;9.80;99.90
51637;DHT22;37713;53.254;6.460;2024-02-21T11:26:52;9.80;99.90
51637;DHT22;37713;53.254;6.460;2024-02-21T11:29:24;9.70;99.90
51637;DHT22;37713;53.254;6.460;2024-02-21T11:31:50;9.70;99.90
51637;DHT22;37713;53.254;6.460;2024-02-21T11:34:19;9.70;99.90
51637;DHT22;37713;53.254;6.460;2024-02-21T11:36:49;9.80;99.90
51637;DHT22;37713;53.254;6.460;2024-02-21T11:39:25;9.70;99.90
51637;DHT22;37713;53.254;6.460;2024-02-21T11:42:07;9.70;99.90
51637;DHT22;37713;53.254;6.460;2024-02-21T11:44:35;9.70;99.90
51637;DHT22;37713;53.254;6.460;2024-02-21T11:47:01;9.60;99.90
51637;DHT22;37713;53.254;6.460;2024-02-21T11:49:29;9.60;99.90
51637;DHT22;37713;53.254;6.460;2024-02-21T11:52:02;9.60;99.90
51637;DHT22;37713;53.254;6.460;2024-02-21T11:54:33;9.60;99.90
51637;DHT22;37713;53.254;6.460;2024-02-21T11:57:00;9.50;99.90
51637;DHT22;37713;53.254;6.460;2024-02-21T11:59:26;9.50;99.90
51637;DHT22;37713;53.254;6.460;2024-02-21T12:01:52;9.50;99.90
51637;DHT22;37713;53.254;6.460;2024-02-21T12:04:20;9.60;99.90
51637;DHT22;37713;53.254;6.460;2024-02-21T12:06:46;9.60;99.90
51637;DHT22;37713;53.254;6.460;2024-02-21T12:09:18;9.60;99.90
51637;DHT22;37713;53.254;6.460;2024-02-21T12:11:45;9.60;99.90
51637;DHT22;37713;53.254;6.460;2024-02-21T12:14:16;9.60;99.90
51637;DHT22;37713;53.254;6.460;2024-02-21T12:16:42;9.60;99.90
51637;DHT22;37713;53.254;6.460;2024-02-21T12:19:13;9.60;99.90
51637;DHT22;37713;53.254;6.460;2024-02-21T12:21:39;9.60;99.90
51637;DHT22;37713;53.254;6.460;2024-02-21T12:24:21;9.60;99.90
51637;DHT22;37713;53.254;6.460;2024-02-21T12:26:46;9.60;99.90
51637;DHT22;37713;53.254;6.460;2024-02-21T12:29:12;9.60;99.90
51637;DHT22;37713;53.254;6.460;2024-02-21T12:31:38;9.60;99.90
51637;DHT22;37713;53.254;6.460;2024-02-21T12:34:05;9.70;99.90
51637;DHT22;37713;53.254;6.460;2024-02-21T12:36:31;9.70;99.90
51637;DHT22;37713;53.254;6.460;2024-02-21T12:38:58;9.70;99.90
51637;DHT22;37713;53.254;6.460;2024-02-21T12:41:24;9.70;99.90
51637;DHT22;37713;53.254;6.460;2024-02-21T12:43:51;9.70;99.90
51637;DHT22;37713;53.254;6.460;2024-02-21T12:46:16;9.70;99.90
51637;DHT22;37713;53.254;6.460;2024-02-21T12:48:42;9.80;99.90
51637;DHT22;37713;53.254;6.460;2024-02-21T12:51:08;9.80;99.90
51637;DHT22;37713;53.254;6.460;2024-02-21T12:53:34;9.80;99.90
51637;DHT22;37713;53.254;6.460;2024-02-21T12:56:00;9.80;99.90
51637;DHT22;37713;53.254;6.460;2024-02-21T12:58:26;9.70;99.90
51637;DHT22;37713;53.254;6.460;2024-02-21T13:00:52;9.80;99.90
51637;DHT22;37713;53.254;6.460;2024-02-21T13:03:18;9.70;99.90
51637;DHT22;37713;53.254;6.460;2024-02-21T13:05:44;9.70;99.90
51637;DHT22;37713;53.254;6.460;2024-02-21T13:08:10;9.70;99.90
51637;DHT22;37713;53.254;6.460;2024-02-21T13:10:37;9.70;99.90
51637;DHT22;37713;53.254;6.460;2024-02-21T13:13:03;9.70;99.90
51637;DHT22;37713;53.254;6.460;2024-02-21T13:15:29;9.70;99.90
51637;DHT22;37713;53.254;6.460;2024-02-21T13:17:58;9.70;99.90
51637;DHT22;37713;53.254;6.460;2024-02-21T13:20:25;9.70;99.90
51637;DHT22;37713;53.254;6.460;2024-02-21T13:22:52;9.60;99.90
51637;DHT22;37713;53.254;6.460;2024-02-21T13:25:18;9.60;99.90
51637;DHT22;37713;53.254;6.460;2024-02-21T13:27:46;9.60;99.90
51637;DHT22;37713;53.254;6.460;2024-02-21T13:30:13;9.60;99.90
51637;DHT22;37713;53.254;6.460;2024-02-21T13:32:41;9.70;99.90
51637;DHT22;37713;53.254;6.460;2024-02-21T13:35:08;9.70;99.90
51637;DHT22;37713;53.254;6.460;2024-02-21T13:37:34;9.80;99.90
51637;DHT22;37713;53.254;6.460;2024-02-21T13:40:01;9.80;99.90
51637;DHT22;37713;53.254;6.460;2024-02-21T13:42:27;9.80;99.90
51637;DHT22;37713;53.254;6.460;2024-02-21T13:44:53;9.80;99.90
51637;DHT22;37713;53.254;6.460;2024-02-21T13:47:19;9.80;99.90
51637;DHT22;37713;53.254;6.460;2024-02-21T13:49:47;9.80;99.90
51637;DHT22;37713;53.254;6.460;2024-02-21T13:52:13;9.80;99.90
51637;DHT22;37713;53.254;6.460;2024-02-21T13:54:40;9.80;99.90
51637;DHT22;37713;53.254;6.460;2024-02-21T13:57:05;9.80;99.90
51637;DHT22;37713;53.254;6.460;2024-02-21T13:59:31;9.80;99.90
51637;DHT22;37713;53.254;6.460;2024-02-21T14:01:59;9.70;99.90
51637;DHT22;37713;53.254;6.460;2024-02-21T14:04:25;9.70;99.90
51637;DHT22;37713;53.254;6.460;2024-02-21T14:06:50;9.70;99.90
51637;DHT22;37713;53.254;6.460;2024-02-21T14:09:16;9.70;99.90
51637;DHT22;37713;53.254;6.460;2024-02-21T14:11:42;9.70;99.90
51637;DHT22;37713;53.254;6.460;2024-02-21T14:14:08;9.70;99.90
51637;DHT22;37713;53.254;6.460;2024-02-21T14:16:34;9.70;99.90
51637;DHT22;37713;53.254;6.460;2024-02-21T14:18:59;9.60;99.90
51637;DHT22;37713;53.254;6.460;2024-02-21T14:21:25;9.60;99.90
51637;DHT22;37713;53.254;6.460;2024-02-21T14:23:51;9.60;99.90
51637;DHT22;37713;53.254;6.460;2024-02-21T14:26:18;9.60;99.90
51637;DHT22;37713;53.254;6.460;2024-02-21T14:28:44;9.60;99.90
51637;DHT22;37713;53.254;6.460;2024-02-21T14:31:11;9.60;99.90
51637;DHT22;37713;53.254;6.460;2024-02-21T14:33:37;9.60;99.90
51637;DHT22;37713;53.254;6.460;2024-02-21T14:36:04;9.50;99.90
51637;DHT22;37713;53.254;6.460;2024-02-21T14:38:30;9.50;99.90
51637;DHT22;37713;53.254;6.460;2024-02-21T14:40:55;9.50;99.90
51637;DHT22;37713;53.254;6.460;2024-02-21T14:43:21;9.40;99.90
51637;DHT22;37713;53.254;6.460;2024-02-21T14:45:48;9.40;99.90
51637;DHT22;37713;53.254;6.460;2024-02-21T14:48:13;9.40;99.90
51637;DHT22;37713;53.254;6.460;2024-02-21T14:50:39;9.40;99.90
51637;DHT22;37713;53.254;6.460;2024-02-21T14:53:06;9.30;99.90
51637;DHT22;37713;53.254;6.460;2024-02-21T14:55:33;9.30;99.90
51637;DHT22;37713;53.254;6.460;2024-02-21T14:57:59;9.30;99.90
51637;DHT22;37713;53.254;6.460;2024-02-21T15:00:26;9.20;99.90
51637;DHT22;37713;53.254;6.460;2024-02-21T15:02:59;9.20;99.90
51637;DHT22;37713;53.254;6.460;2024-02-21T15:05:25;9.20;99.90
51637;DHT22;37713;53.254;6.460;2024-02-21T15:07:52;9.10;99.90
51637;DHT22;37713;53.254;6.460;2024-02-21T15:10:18;9.10;99.90
51637;DHT22;37713;53.254;6.460;2024-02-21T15:12:46;9.10;99.90
51637;DHT22;37713;53.254;6.460;2024-02-21T15:15:13;9.10;99.90
51637;DHT22;37713;53.254;6.460;2024-02-21T15:17:39;9.10;99.90
51637;DHT22;37713;53.254;6.460;2024-02-21T15:20:06;9.10;99.90
51637;DHT22;37713;53.254;6.460;2024-02-21T15:22:33;9.10;99.90
51637;DHT22;37713;53.254;6.460;2024-02-21T15:24:59;9.10;99.90
51637;DHT22;37713;53.254;6.460;2024-02-21T15:27:45;9.10;99.90
51637;DHT22;37713;53.254;6.460;2024-02-21T15:30:12;9.10;99.90
51637;DHT22;37713;53.254;6.460;2024-02-21T15:32:39;9.00;99.90
51637;DHT22;37713;53.254;6.460;2024-02-21T15:35:05;9.10;99.90
51637;DHT22;37713;53.254;6.460;2024-02-21T15:37:35;9.00;99.90
51637;DHT22;37713;53.254;6.460;2024-02-21T15:40:01;9.00;99.90
51637;DHT22;37713;53.254;6.460;2024-02-21T15:42:28;9.00;99.90
51637;DHT22;37713;53.254;6.460;2024-02-21T15:44:54;9.00;99.90
51637;DHT22;37713;53.254;6.460;2024-02-21T15:47:20;9.00;99.90
51637;DHT22;37713;53.254;6.460;2024-02-21T15:49:49;9.00;99.90